createdAt,value
2023-04-04T00:00:25.531Z,0.68
2023-04-04T00:02:53.179Z,0.60
2023-04-04T00:05:20.819Z,0.82
2023-04-04T00:07:48.415Z,0.50
2023-04-04T00:10:17.370Z,0.68
2023-04-04T00:12:44.977Z,0.73
2023-04-04T00:15:12.716Z,0.30
2023-04-04T00:17:40.580Z,0.50
2023-04-04T00:20:09.278Z,0.40
2023-04-04T00:22:36.911Z,0.40
2023-04-04T00:25:04.686Z,0.50
2023-04-04T00:27:33.746Z,0.45
2023-04-04T00:30:01.752Z,0.40
2023-04-04T00:32:29.618Z,0.60
2023-04-04T00:34:58.044Z,0.52
2023-04-04T00:37:25.784Z,0.63
2023-04-04T00:39:53.388Z,0.50
2023-04-04T00:42:21.087Z,0.57
2023-04-04T00:44:50.029Z,0.75
2023-04-04T00:47:17.653Z,0.50
2023-04-04T00:49:46.082Z,1.05
2023-04-04T00:52:13.744Z,0.30
2023-04-04T00:54:41.390Z,0.47
2023-04-04T00:57:09.794Z,0.50
2023-04-04T00:59:37.441Z,0.40
2023-04-04T01:02:06.697Z,0.50
2023-04-04T01:04:34.445Z,0.60
2023-04-04T01:07:02.976Z,0.50
2023-04-04T01:09:31.544Z,0.60
2023-04-04T01:11:59.347Z,0.47
2023-04-04T01:14:28.885Z,0.73
2023-04-04T01:16:56.804Z,0.57
2023-04-04T01:19:31.898Z,0.60
2023-04-04T01:22:03.092Z,0.40
2023-04-04T01:24:34.252Z,0.50
2023-04-04T01:27:06.520Z,0.30
2023-04-04T01:29:39.360Z,0.85
2023-04-04T01:32:09.804Z,0.43
2023-04-04T01:34:42.610Z,0.70
2023-04-04T01:37:13.646Z,0.63
2023-04-04T01:39:44.843Z,0.60
2023-04-04T01:42:15.682Z,0.70
2023-04-04T01:44:46.474Z,0.60
2023-04-04T01:47:15.061Z,0.55
2023-04-04T01:49:43.461Z,0.70
2023-04-04T01:52:11.142Z,0.93
2023-04-04T01:54:38.951Z,0.50
2023-04-04T01:57:07.190Z,0.60
2023-04-04T01:59:36.340Z,0.52
2023-04-04T02:02:04.005Z,0.40
2023-04-04T02:04:31.610Z,0.40
2023-04-04T02:06:59.250Z,0.47
2023-04-04T02:09:27.309Z,0.68
2023-04-04T02:11:54.937Z,0.50
2023-04-04T02:14:22.508Z,0.40
2023-04-04T02:16:52.206Z,0.50
2023-04-04T02:19:20.039Z,0.50
2023-04-04T02:21:47.594Z,0.70
2023-04-04T02:24:15.497Z,0.45
2023-04-04T02:26:43.228Z,0.65
2023-04-04T02:29:11.141Z,0.82
2023-04-04T02:31:38.729Z,0.60
2023-04-04T02:34:10.307Z,0.65
2023-04-04T02:36:38.113Z,0.45
2023-04-04T02:39:05.905Z,0.55
2023-04-04T02:41:33.577Z,0.60
2023-04-04T02:44:01.160Z,0.45
2023-04-04T02:46:28.770Z,0.50
2023-04-04T02:49:02.372Z,0.55
2023-04-04T02:51:33.548Z,0.55
2023-04-04T02:54:02.933Z,0.40
2023-04-04T02:56:38.093Z,1.20
2023-04-04T02:59:05.849Z,0.80
2023-04-04T03:01:33.613Z,0.43
2023-04-04T03:04:04.622Z,0.50
2023-04-04T03:06:35.587Z,0.70
2023-04-04T03:09:04.867Z,0.52
2023-04-04T03:11:32.506Z,0.43
2023-04-04T03:14:00.165Z,0.47
2023-04-04T03:16:35.602Z,0.40
2023-04-04T03:19:03.283Z,0.38
2023-04-04T03:21:31.247Z,0.60
2023-04-04T03:24:00.787Z,0.60
2023-04-04T03:26:29.559Z,0.75
2023-04-04T03:28:57.317Z,0.40
2023-04-04T03:31:26.340Z,0.82
2023-04-04T03:33:54.138Z,0.50
2023-04-04T03:36:23.067Z,0.32
2023-04-04T03:38:51.623Z,0.50
2023-04-04T03:41:20.587Z,0.77
2023-04-04T03:43:48.320Z,0.82
2023-04-04T03:46:16.428Z,0.47
2023-04-04T03:48:46.482Z,0.70
2023-04-04T03:51:14.200Z,0.68
2023-04-04T03:53:44.582Z,0.60
2023-04-04T03:56:12.199Z,0.50
2023-04-04T03:58:41.465Z,0.70
2023-04-04T04:01:12.197Z,0.57
2023-04-04T04:03:39.845Z,0.52
2023-04-04T04:06:07.616Z,0.60
2023-04-04T04:08:35.342Z,0.57
2023-04-04T04:11:06.117Z,0.60
2023-04-04T04:13:34.594Z,0.80
2023-04-04T04:16:04.882Z,0.38
2023-04-04T04:18:32.694Z,0.55
2023-04-04T04:21:02.753Z,0.43
2023-04-04T04:23:30.849Z,0.57
2023-04-04T04:25:58.570Z,0.50
2023-04-04T04:28:34.142Z,1.08
2023-04-04T04:31:07.447Z,0.70
2023-04-04T04:33:40.176Z,0.40
2023-04-04T04:36:08.577Z,0.50
2023-04-04T04:38:47.163Z,0.75
2023-04-04T04:41:16.739Z,0.98
2023-04-04T04:43:48.347Z,0.80
2023-04-04T04:46:17.715Z,0.75
2023-04-04T04:48:45.533Z,0.50
2023-04-04T04:51:15.167Z,0.40
2023-04-04T04:53:51.413Z,0.60
2023-04-04T04:56:19.699Z,0.57
2023-04-04T04:58:51.154Z,1.20
2023-04-04T05:01:28.893Z,0.50
2023-04-04T05:03:57.933Z,0.60
2023-04-04T05:06:33.327Z,0.60
2023-04-04T05:09:01.425Z,0.68
2023-04-04T05:11:33.158Z,0.50
2023-04-04T05:14:02.960Z,0.60
2023-04-04T05:16:37.723Z,0.50
2023-04-04T05:19:06.858Z,0.45
2023-04-04T05:21:41.388Z,0.65
2023-04-04T05:24:12.783Z,0.77
2023-04-04T05:26:41.336Z,0.60
2023-04-04T05:29:09.146Z,0.80
2023-04-04T05:31:42.436Z,0.50
2023-04-04T05:34:17.374Z,0.88
2023-04-04T05:36:45.002Z,0.75
2023-04-04T05:39:12.558Z,0.73
2023-04-04T05:41:48.508Z,0.60
2023-04-04T05:44:18.491Z,0.75
2023-04-04T05:46:47.625Z,0.60
2023-04-04T05:49:15.722Z,0.65
2023-04-04T05:51:56.477Z,0.57
2023-04-04T05:54:24.825Z,0.90
2023-04-04T05:56:52.990Z,0.85
2023-04-04T05:59:34.985Z,0.82
2023-04-04T06:02:07.733Z,1.23
2023-04-04T06:04:41.047Z,1.52
2023-04-04T06:07:11.031Z,1.23
2023-04-04T06:09:38.732Z,1.27
2023-04-04T06:12:06.628Z,1.52
2023-04-04T06:14:35.396Z,2.03
2023-04-04T06:17:06.684Z,1.58
2023-04-04T06:19:35.748Z,1.35
2023-04-04T06:22:03.391Z,1.70
2023-04-04T06:24:36.153Z,0.98
2023-04-04T06:27:04.816Z,1.73
2023-04-04T06:29:34.190Z,1.92
2023-04-04T06:32:04.450Z,2.17
2023-04-04T06:34:42.762Z,1.80
2023-04-04T06:37:12.305Z,1.20
2023-04-04T06:39:48.712Z,1.77
2023-04-04T06:42:22.928Z,1.80
2023-04-04T06:44:52.668Z,2.15
2023-04-04T06:47:20.949Z,1.75
2023-04-04T06:49:49.885Z,1.85
2023-04-04T06:52:18.232Z,2.17
2023-04-04T06:54:45.832Z,1.42
2023-04-04T06:57:15.068Z,1.58
2023-04-04T06:59:45.009Z,2.40
2023-04-04T07:02:12.961Z,1.70
2023-04-04T07:04:41.879Z,1.48
2023-04-04T07:07:11.053Z,1.77
2023-04-04T07:09:38.791Z,1.52
2023-04-04T07:12:06.672Z,2.53
2023-04-04T07:14:34.244Z,1.52
2023-04-04T07:17:10.702Z,1.63
2023-04-04T07:19:44.971Z,1.92
2023-04-04T07:22:14.489Z,2.17
2023-04-04T07:24:42.510Z,1.98
2023-04-04T07:27:10.120Z,1.60
2023-04-04T07:29:37.698Z,1.88
2023-04-04T07:32:05.385Z,2.17
2023-04-04T07:34:33.042Z,1.67
2023-04-04T07:37:00.615Z,2.00
2023-04-04T07:39:29.544Z,1.83
2023-04-04T07:41:57.281Z,1.58
2023-04-04T07:44:24.896Z,1.50
2023-04-04T07:47:06.443Z,1.80
2023-04-04T07:49:37.208Z,1.73
2023-04-04T07:52:05.024Z,1.23
2023-04-04T07:54:33.933Z,1.65
2023-04-04T07:57:01.532Z,1.25
2023-04-04T07:59:29.241Z,1.80
2023-04-04T08:01:56.934Z,1.75
2023-04-04T08:04:24.539Z,1.70
2023-04-04T08:06:53.118Z,1.55
2023-04-04T08:09:20.730Z,0.90
2023-04-04T08:11:49.677Z,1.73
2023-04-04T08:14:17.281Z,1.40
2023-04-04T08:16:44.902Z,1.30
2023-04-04T08:19:12.516Z,1.10
2023-04-04T08:21:40.077Z,0.85
2023-04-04T08:24:07.869Z,1.45
2023-04-04T08:26:35.514Z,1.23
2023-04-04T08:29:04.683Z,1.00
2023-04-04T08:31:33.192Z,1.23
2023-04-04T08:34:02.017Z,1.08
2023-04-04T08:36:30.625Z,1.10
2023-04-04T08:38:58.194Z,1.58
2023-04-04T08:41:27.058Z,1.30
2023-04-04T08:43:56.578Z,0.95
2023-04-04T08:46:26.883Z,0.95
2023-04-04T08:48:57.587Z,0.75
2023-04-04T08:51:26.159Z,0.88
2023-04-04T08:53:54.012Z,1.08
2023-04-04T08:56:21.761Z,1.10
2023-04-04T08:58:49.461Z,0.90
2023-04-04T09:01:17.372Z,1.48
2023-04-04T09:03:46.536Z,0.93
2023-04-04T09:06:14.715Z,1.27
2023-04-04T09:08:42.470Z,0.88
2023-04-04T09:11:10.100Z,1.30
2023-04-04T09:13:40.897Z,1.27
2023-04-04T09:16:09.050Z,0.95
2023-04-04T09:18:36.990Z,1.00
2023-04-04T09:21:11.952Z,1.00
2023-04-04T09:23:39.974Z,0.85
2023-04-04T09:26:07.836Z,0.77
2023-04-04T09:28:36.694Z,0.55
2023-04-04T09:31:06.109Z,1.30
2023-04-04T09:33:34.288Z,1.10
2023-04-04T09:36:04.302Z,1.10
2023-04-04T09:38:33.349Z,0.75
2023-04-04T09:41:01.121Z,1.38
2023-04-04T09:43:30.841Z,0.80
2023-04-04T09:45:59.968Z,1.23
2023-04-04T09:48:28.826Z,0.80
2023-04-04T09:50:58.153Z,0.70
2023-04-04T09:53:26.046Z,0.90
2023-04-04T09:55:56.053Z,0.80
2023-04-04T09:58:25.453Z,1.00
2023-04-04T10:00:54.154Z,0.90
2023-04-04T10:03:22.977Z,0.88
2023-04-04T10:05:56.164Z,0.85
2023-04-04T10:08:23.871Z,0.60
2023-04-04T10:11:09.076Z,0.70
2023-04-04T10:13:41.774Z,0.93
2023-04-04T10:16:10.724Z,0.80
2023-04-04T10:18:39.231Z,0.88
2023-04-04T10:23:39.513Z,0.70
2023-04-04T10:26:07.571Z,0.77
2023-04-04T10:28:35.354Z,0.77
2023-04-04T10:31:07.737Z,0.70
2023-04-04T10:33:40.334Z,0.75
2023-04-04T10:36:09.996Z,0.45
2023-04-04T10:38:41.686Z,0.68
2023-04-04T10:41:09.886Z,0.85
2023-04-04T10:43:40.352Z,0.50
2023-04-04T10:46:13.443Z,0.60
2023-04-04T10:48:42.414Z,0.73
2023-04-04T10:51:11.622Z,0.50
2023-04-04T10:53:40.349Z,0.82
2023-04-04T10:56:08.311Z,0.70
2023-04-04T10:58:40.406Z,0.40
2023-04-04T11:01:09.557Z,0.52
2023-04-04T11:03:52.309Z,0.63
2023-04-04T11:06:19.933Z,0.65
2023-04-04T11:08:54.837Z,0.82
2023-04-04T11:11:23.235Z,0.60
2023-04-04T11:14:00.531Z,0.73
2023-04-04T11:16:45.406Z,0.47
2023-04-04T11:19:15.170Z,0.88
2023-04-04T11:21:46.144Z,0.63
2023-04-04T11:24:14.676Z,0.50
2023-04-04T11:26:43.172Z,0.68
2023-04-04T11:29:14.354Z,0.60
2023-04-04T11:31:45.183Z,0.60
2023-04-04T11:34:13.744Z,0.60
2023-04-04T11:36:51.800Z,0.57
2023-04-04T11:39:23.821Z,0.40
2023-04-04T11:41:54.172Z,0.75
2023-04-04T11:44:22.467Z,0.95
2023-04-04T11:46:55.881Z,0.77
2023-04-04T11:49:26.406Z,0.20
2023-04-04T11:51:54.011Z,0.35
2023-04-04T11:54:21.584Z,0.40
2023-04-04T11:56:49.150Z,0.70
2023-04-04T11:59:19.196Z,0.60
2023-04-04T12:01:47.052Z,0.70
2023-04-04T12:04:18.220Z,0.50
2023-04-04T12:06:47.932Z,0.70
2023-04-04T12:09:17.560Z,0.50
2023-04-04T12:11:46.147Z,0.30
2023-04-04T12:14:17.317Z,0.68
2023-04-04T12:16:45.389Z,0.45
2023-04-04T12:19:13.031Z,0.65
2023-04-04T12:21:42.231Z,0.65
2023-04-04T12:24:09.949Z,0.50
2023-04-04T12:26:38.141Z,0.45
2023-04-04T12:29:06.243Z,0.60
2023-04-04T12:31:34.489Z,0.40
2023-04-04T12:34:02.351Z,0.52
2023-04-04T12:36:30.323Z,0.50
2023-04-04T12:39:02.991Z,0.60
2023-04-04T12:41:30.638Z,0.20
2023-04-04T12:44:02.210Z,0.63
2023-04-04T12:46:29.873Z,0.65
2023-04-04T12:48:58.110Z,0.50
2023-04-04T12:51:32.710Z,0.45
2023-04-04T12:54:00.481Z,0.43
2023-04-04T12:56:29.739Z,0.55
2023-04-04T12:59:01.897Z,0.40
2023-04-04T13:01:30.870Z,0.70
2023-04-04T13:03:58.781Z,0.47
2023-04-04T13:06:29.065Z,0.60
2023-04-04T13:08:57.189Z,0.80
2023-04-04T13:11:25.018Z,1.08
2023-04-04T13:14:02.632Z,0.50
2023-04-04T13:16:31.117Z,0.30
2023-04-04T13:18:58.738Z,0.22
2023-04-04T13:21:26.738Z,0.57
2023-04-04T13:23:54.544Z,0.47
2023-04-04T13:26:22.630Z,0.93
2023-04-04T13:28:50.312Z,0.30
2023-04-04T13:31:27.199Z,0.45
2023-04-04T13:33:54.807Z,0.57
2023-04-04T13:36:22.470Z,0.73
2023-04-04T13:38:50.268Z,0.40
2023-04-04T13:41:17.885Z,0.32
2023-04-04T13:43:45.491Z,0.65
2023-04-04T13:46:13.055Z,0.50
2023-04-04T13:48:42.156Z,0.30
2023-04-04T13:51:09.761Z,0.40
2023-04-04T13:53:37.329Z,0.40
2023-04-04T13:58:35.515Z,0.57
2023-04-04T14:01:03.935Z,0.50
2023-04-04T14:03:31.896Z,0.52
2023-04-04T14:06:09.305Z,0.73
2023-04-04T14:08:38.246Z,0.80
2023-04-04T14:11:05.868Z,0.40
2023-04-04T14:13:33.651Z,0.38
2023-04-04T14:16:01.371Z,0.35
2023-04-04T14:18:29.024Z,0.50
2023-04-04T14:20:56.772Z,0.70
2023-04-04T14:23:27.091Z,0.80
2023-04-04T14:25:54.699Z,0.50
2023-04-04T14:28:22.505Z,0.32
2023-04-04T14:30:50.972Z,0.30
2023-04-04T14:33:18.530Z,0.43
2023-04-04T14:35:46.142Z,0.20
2023-04-04T14:38:13.713Z,0.60
2023-04-04T14:40:42.948Z,0.55
2023-04-04T14:43:10.556Z,0.50
2023-04-04T14:45:38.604Z,0.30
2023-04-04T14:48:06.705Z,0.65
2023-04-04T14:50:34.350Z,0.35
2023-04-04T14:53:01.929Z,0.47
2023-04-04T14:55:29.506Z,0.70
2023-04-04T14:58:02.544Z,0.68
2023-04-04T15:00:30.713Z,0.50
2023-04-04T15:02:58.358Z,0.40
2023-04-04T15:05:26.306Z,0.40
2023-04-04T15:07:53.970Z,0.38
2023-04-04T15:10:21.636Z,0.57
2023-04-04T15:12:49.236Z,0.45
2023-04-04T15:15:18.172Z,0.45
2023-04-04T15:17:45.798Z,0.75
2023-04-04T15:20:13.842Z,0.30
2023-04-04T15:22:41.834Z,0.60
2023-04-04T15:25:10.025Z,0.30
2023-04-04T15:27:37.638Z,0.50
2023-04-04T15:30:05.587Z,0.45
2023-04-04T15:32:34.589Z,0.50
2023-04-04T15:35:04.377Z,0.50
2023-04-04T15:37:31.985Z,0.50
2023-04-04T15:39:59.583Z,0.57
2023-04-04T15:42:29.251Z,0.80
2023-04-04T15:44:57.271Z,0.60
2023-04-04T15:47:24.929Z,0.40
2023-04-04T15:49:53.918Z,0.40
2023-04-04T15:52:21.518Z,0.30
2023-04-04T15:54:49.120Z,0.43
2023-04-04T15:57:16.711Z,0.45
2023-04-04T15:59:44.300Z,0.43
2023-04-04T16:02:11.868Z,0.70
2023-04-04T16:04:39.497Z,0.25
2023-04-04T16:07:08.438Z,0.40
2023-04-04T16:09:36.170Z,0.60
2023-04-04T16:12:03.966Z,0.22
2023-04-04T16:14:31.533Z,0.50
2023-04-04T16:16:59.679Z,0.50
2023-04-04T16:19:27.319Z,0.43
2023-04-04T16:21:54.906Z,0.60
2023-04-04T16:24:23.853Z,0.40
2023-04-04T16:26:51.439Z,0.40
2023-04-04T16:29:20.422Z,0.50
2023-04-04T16:31:48.156Z,0.75
2023-04-04T16:34:15.858Z,0.60
2023-04-04T16:36:43.491Z,0.50
2023-04-04T16:39:11.314Z,0.60
2023-04-04T16:41:40.946Z,0.75
2023-04-04T16:44:08.748Z,0.70
2023-04-04T16:46:36.604Z,0.80
2023-04-04T16:49:04.313Z,0.95
2023-04-04T16:51:31.976Z,0.90
2023-04-04T16:53:59.642Z,0.80
2023-04-04T16:56:27.178Z,0.82
2023-04-04T16:58:56.276Z,0.98
2023-04-04T17:01:26.075Z,1.17
2023-04-04T17:03:53.744Z,1.05
2023-04-04T17:06:21.356Z,0.88
2023-04-04T17:08:49.794Z,1.02
2023-04-04T17:11:17.455Z,0.82
2023-04-04T17:13:45.927Z,1.00
2023-04-04T17:16:14.955Z,1.02
2023-04-04T17:18:42.573Z,0.88
2023-04-04T17:21:10.214Z,1.02
2023-04-04T17:23:37.799Z,1.10
2023-04-04T17:26:05.523Z,1.00
2023-04-04T17:28:33.079Z,0.90
2023-04-04T17:31:00.698Z,1.13
2023-04-04T17:33:29.645Z,1.02
2023-04-04T17:35:57.239Z,1.23
2023-04-04T17:38:24.834Z,0.82
2023-04-04T17:40:52.776Z,1.05
2023-04-04T17:43:21.367Z,0.80
2023-04-04T17:45:49.017Z,1.00
2023-04-04T17:48:16.680Z,0.80
2023-04-04T17:50:45.738Z,1.10
2023-04-04T17:53:13.453Z,1.10
2023-04-04T17:55:41.150Z,0.95
2023-04-04T17:58:08.786Z,0.95
2023-04-04T18:00:36.900Z,1.00
2023-04-04T18:03:04.625Z,0.82
2023-04-04T18:05:33.025Z,0.70
2023-04-04T18:08:04.717Z,1.00
2023-04-04T18:10:32.871Z,0.68
2023-04-04T18:13:01.334Z,0.80
2023-04-04T18:15:29.481Z,0.70
2023-04-04T18:17:57.157Z,0.73
2023-04-04T18:20:42.454Z,0.75
2023-04-04T18:23:11.832Z,0.85
2023-04-04T18:25:39.433Z,0.82
2023-04-04T18:28:07.201Z,1.05
2023-04-04T18:30:36.653Z,0.63
2023-04-04T18:33:05.298Z,0.70
2023-04-04T18:35:33.008Z,0.73
2023-04-04T18:38:00.734Z,0.77
2023-04-04T18:40:29.733Z,0.63
2023-04-04T18:42:57.341Z,0.70
2023-04-04T18:45:33.728Z,1.10
2023-04-04T18:48:08.286Z,0.70
2023-04-04T18:50:36.045Z,0.85
2023-04-04T18:53:03.660Z,0.68
2023-04-04T18:55:32.753Z,0.75
2023-04-04T18:58:00.562Z,1.10
2023-04-04T19:00:28.162Z,0.68
2023-04-04T19:02:57.008Z,0.40
2023-04-04T19:05:25.186Z,0.40
2023-04-04T19:07:53.702Z,0.98
2023-04-04T19:10:21.546Z,0.30
2023-04-04T19:12:50.802Z,0.47
2023-04-04T19:15:18.519Z,0.68
2023-04-04T19:17:46.237Z,0.45
2023-04-04T19:20:14.010Z,0.45
2023-04-04T19:22:41.716Z,0.82
2023-04-04T19:25:09.579Z,0.40
2023-04-04T19:27:37.184Z,0.75
2023-04-04T19:30:12.521Z,0.32
2023-04-04T19:32:40.128Z,0.70
2023-04-04T19:35:20.745Z,0.57
2023-04-04T19:37:48.395Z,0.60
2023-04-04T19:40:16.806Z,0.40
2023-04-04T19:42:44.392Z,0.30
2023-04-04T19:45:14.814Z,0.90
2023-04-04T19:47:42.434Z,0.65
2023-04-04T19:50:10.768Z,0.88
2023-04-04T19:52:38.309Z,0.63
2023-04-04T19:55:09.339Z,0.50
2023-04-04T19:57:38.489Z,0.30
2023-04-04T20:00:13.206Z,0.98
2023-04-04T20:02:52.226Z,0.60
2023-04-04T20:05:46.938Z,0.65
2023-04-04T20:08:15.473Z,0.88
2023-04-04T20:10:43.286Z,0.90
2023-04-04T20:13:11.674Z,0.63
2023-04-04T20:15:55.503Z,0.60
2023-04-04T20:18:25.464Z,0.75
2023-04-04T20:20:57.271Z,0.77
2023-04-04T20:23:26.100Z,0.68
2023-04-04T20:25:54.125Z,0.80
2023-04-04T20:28:23.628Z,0.95
2023-04-04T20:30:51.251Z,0.88
2023-04-04T20:33:36.827Z,0.63
2023-04-04T20:36:08.558Z,1.05
2023-04-04T20:38:37.072Z,0.80
2023-04-04T20:41:06.797Z,1.00
2023-04-04T20:43:34.364Z,0.60
2023-04-04T20:46:01.979Z,0.80
2023-04-04T20:48:34.884Z,0.70
2023-04-04T20:51:03.929Z,0.77
2023-04-04T20:53:32.746Z,1.17
2023-04-04T20:56:02.287Z,1.00
2023-04-04T20:58:30.879Z,1.15
2023-04-04T21:00:59.254Z,0.55
2023-04-04T21:03:31.484Z,1.05
2023-04-04T21:06:01.538Z,0.63
2023-04-04T21:08:37.474Z,1.25
2023-04-04T21:11:06.669Z,1.08
2023-04-04T21:13:36.117Z,0.73
2023-04-04T21:16:05.884Z,0.80
2023-04-04T21:18:33.618Z,1.13
2023-04-04T21:21:07.605Z,1.13
2023-04-04T21:23:42.031Z,0.90
2023-04-04T21:26:10.883Z,0.70
2023-04-04T21:28:38.974Z,1.42
2023-04-04T21:31:09.934Z,1.48
2023-04-04T21:33:38.052Z,0.88
2023-04-04T21:36:07.455Z,0.90
2023-04-04T21:38:36.556Z,1.15
2023-04-04T21:41:09.727Z,0.63
2023-04-04T21:43:37.317Z,1.20
2023-04-04T21:46:04.927Z,1.02
2023-04-04T21:48:32.523Z,1.02
2023-04-04T21:51:00.064Z,1.02
2023-04-04T21:53:27.630Z,0.90
2023-04-04T21:55:56.565Z,1.30
2023-04-04T21:58:24.169Z,0.90
2023-04-04T22:00:52.129Z,1.20
2023-04-04T22:03:19.719Z,0.98
2023-04-04T22:05:47.358Z,1.25
2023-04-04T22:08:14.922Z,1.23
2023-04-04T22:10:47.543Z,1.02
2023-04-04T22:13:17.306Z,1.10
2023-04-04T22:15:46.962Z,1.15
2023-04-04T22:18:15.852Z,1.35
2023-04-04T22:20:43.722Z,1.55
2023-04-04T22:23:11.745Z,1.00
2023-04-04T22:25:39.506Z,1.00
2023-04-04T22:28:08.411Z,1.08
2023-04-04T22:30:39.016Z,1.13
2023-04-04T22:33:07.112Z,0.95
2023-04-04T22:35:34.742Z,1.05
2023-04-04T22:38:03.157Z,1.00
2023-04-04T22:40:31.228Z,1.42
2023-04-04T22:42:58.996Z,0.88
2023-04-04T22:45:27.278Z,0.93
2023-04-04T22:48:02.258Z,1.23
2023-04-04T22:50:30.601Z,1.60
2023-04-04T22:52:58.771Z,1.00
2023-04-04T22:55:27.029Z,1.30
2023-04-04T22:57:54.656Z,0.80
2023-04-04T23:00:22.683Z,0.70
2023-04-04T23:02:51.239Z,0.93
2023-04-04T23:05:20.384Z,1.20
2023-04-04T23:07:47.948Z,1.08
2023-04-04T23:10:16.224Z,1.10
2023-04-04T23:12:43.789Z,1.10
2023-04-04T23:15:13.268Z,1.63
2023-04-04T23:17:41.064Z,1.23
2023-04-04T23:20:09.435Z,1.25
2023-04-04T23:22:38.828Z,1.13
2023-04-04T23:25:07.694Z,1.05
2023-04-04T23:27:35.427Z,1.33
2023-04-04T23:30:04.887Z,0.82
2023-04-04T23:32:32.670Z,1.00
2023-04-04T23:35:00.260Z,1.25
2023-04-04T23:37:27.832Z,1.48
2023-04-04T23:39:56.823Z,1.05
2023-04-04T23:42:24.405Z,1.08
2023-04-04T23:44:52.191Z,0.90
2023-04-04T23:47:19.758Z,1.02
2023-04-04T23:49:47.350Z,1.05
2023-04-04T23:52:14.911Z,1.75
2023-04-04T23:54:42.479Z,1.85
2023-04-04T23:57:11.430Z,1.13
2023-04-04T23:59:38.970Z,1.00
